sensor_id;sensor_type;location;lat;lon;timestamp;P1;durP1;ratioP1;P2;durP2;ratioP2
20527;SDS011;23612;50.894;10.700;2022-12-11T00:01:54;48.53;;;22.17;;
20527;SDS011;23612;50.894;10.700;2022-12-11T00:04:20;52.90;;;23.17;;
20527;SDS011;23612;50.894;10.700;2022-12-11T00:06:46;52.87;;;24.17;;
20527;SDS011;23612;50.894;10.700;2022-12-11T00:09:14;60.90;;;25.37;;
20527;SDS011;23612;50.894;10.700;2022-12-11T00:11:44;58.93;;;24.93;;
20527;SDS011;23612;50.894;10.700;2022-12-11T00:14:10;51.37;;;23.80;;
20527;SDS011;23612;50.894;10.700;2022-12-11T00:16:36;54.43;;;23.57;;
20527;SDS011;23612;50.894;10.700;2022-12-11T00:19:02;50.07;;;21.87;;
20527;SDS011;23612;50.894;10.700;2022-12-11T00:21:28;50.17;;;22.57;;
20527;SDS011;23612;50.894;10.700;2022-12-11T00:23:53;47.63;;;21.10;;
20527;SDS011;23612;50.894;10.700;2022-12-11T00:26:19;47.07;;;21.13;;
20527;SDS011;23612;50.894;10.700;2022-12-11T00:28:45;47.00;;;19.83;;
20527;SDS011;23612;50.894;10.700;2022-12-11T00:31:15;45.83;;;21.30;;
20527;SDS011;23612;50.894;10.700;2022-12-11T00:33:43;52.03;;;22.60;;
20527;SDS011;23612;50.894;10.700;2022-12-11T00:36:10;56.27;;;23.43;;
20527;SDS011;23612;50.894;10.700;2022-12-11T00:38:40;52.47;;;21.33;;
20527;SDS011;23612;50.894;10.700;2022-12-11T00:41:07;54.73;;;22.33;;
20527;SDS011;23612;50.894;10.700;2022-12-11T00:43:33;52.97;;;22.20;;
20527;SDS011;23612;50.894;10.700;2022-12-11T00:45:58;52.77;;;22.93;;
20527;SDS011;23612;50.894;10.700;2022-12-11T00:48:24;45.03;;;22.13;;
20527;SDS011;23612;50.894;10.700;2022-12-11T00:50:50;50.83;;;20.77;;
20527;SDS011;23612;50.894;10.700;2022-12-11T00:53:15;46.93;;;21.07;;
20527;SDS011;23612;50.894;10.700;2022-12-11T00:55:41;50.97;;;22.73;;
20527;SDS011;23612;50.894;10.700;2022-12-11T00:58:08;52.77;;;23.07;;
20527;SDS011;23612;50.894;10.700;2022-12-11T01:00:34;51.53;;;22.83;;
20527;SDS011;23612;50.894;10.700;2022-12-11T01:03:00;51.23;;;21.70;;
20527;SDS011;23612;50.894;10.700;2022-12-11T01:05:26;48.10;;;20.57;;
20527;SDS011;23612;50.894;10.700;2022-12-11T01:07:52;50.57;;;22.63;;
20527;SDS011;23612;50.894;10.700;2022-12-11T01:10:17;44.17;;;20.80;;
20527;SDS011;23612;50.894;10.700;2022-12-11T01:12:49;47.00;;;22.50;;
20527;SDS011;23612;50.894;10.700;2022-12-11T01:15:20;49.03;;;22.20;;
20527;SDS011;23612;50.894;10.700;2022-12-11T01:17:47;47.67;;;22.87;;
20527;SDS011;23612;50.894;10.700;2022-12-11T01:20:14;54.33;;;24.00;;
20527;SDS011;23612;50.894;10.700;2022-12-11T01:22:39;51.50;;;22.77;;
20527;SDS011;23612;50.894;10.700;2022-12-11T01:25:05;50.27;;;22.97;;
20527;SDS011;23612;50.894;10.700;2022-12-11T01:27:33;57.27;;;23.17;;
20527;SDS011;23612;50.894;10.700;2022-12-11T01:29:59;49.30;;;23.97;;
20527;SDS011;23612;50.894;10.700;2022-12-11T01:32:25;53.07;;;23.50;;
20527;SDS011;23612;50.894;10.700;2022-12-11T01:34:52;55.83;;;23.27;;
20527;SDS011;23612;50.894;10.700;2022-12-11T01:37:18;51.73;;;22.83;;
20527;SDS011;23612;50.894;10.700;2022-12-11T01:39:43;55.57;;;25.63;;
20527;SDS011;23612;50.894;10.700;2022-12-11T01:42:09;51.50;;;23.30;;
20527;SDS011;23612;50.894;10.700;2022-12-11T01:47:06;53.87;;;23.73;;
20527;SDS011;23612;50.894;10.700;2022-12-11T01:49:31;54.60;;;23.33;;
20527;SDS011;23612;50.894;10.700;2022-12-11T01:51:58;53.30;;;23.03;;
20527;SDS011;23612;50.894;10.700;2022-12-11T01:54:42;52.10;;;23.87;;
20527;SDS011;23612;50.894;10.700;2022-12-11T01:57:08;55.00;;;24.50;;
20527;SDS011;23612;50.894;10.700;2022-12-11T01:59:38;52.17;;;24.47;;
20527;SDS011;23612;50.894;10.700;2022-12-11T02:02:06;58.23;;;22.77;;
20527;SDS011;23612;50.894;10.700;2022-12-11T02:04:53;53.90;;;25.67;;
20527;SDS011;23612;50.894;10.700;2022-12-11T02:07:18;62.27;;;25.53;;
20527;SDS011;23612;50.894;10.700;2022-12-11T02:09:44;54.70;;;25.30;;
20527;SDS011;23612;50.894;10.700;2022-12-11T02:12:14;56.60;;;24.67;;
20527;SDS011;23612;50.894;10.700;2022-12-11T02:17:23;62.17;;;26.80;;
20527;SDS011;23612;50.894;10.700;2022-12-11T02:23:11;56.70;;;25.50;;
20527;SDS011;23612;50.894;10.700;2022-12-11T02:28:16;60.87;;;26.77;;
20527;SDS011;23612;50.894;10.700;2022-12-11T02:30:46;60.80;;;26.53;;
20527;SDS011;23612;50.894;10.700;2022-12-11T02:33:22;65.17;;;27.77;;
20527;SDS011;23612;50.894;10.700;2022-12-11T02:35:53;60.77;;;27.30;;
20527;SDS011;23612;50.894;10.700;2022-12-11T02:38:25;58.93;;;25.50;;
20527;SDS011;23612;50.894;10.700;2022-12-11T02:40:54;60.27;;;26.23;;
20527;SDS011;23612;50.894;10.700;2022-12-11T02:43:23;58.00;;;26.57;;
20527;SDS011;23612;50.894;10.700;2022-12-11T02:45:51;54.03;;;24.33;;
20527;SDS011;23612;50.894;10.700;2022-12-11T02:48:17;54.07;;;23.30;;
20527;SDS011;23612;50.894;10.700;2022-12-11T02:50:46;50.50;;;22.73;;
20527;SDS011;23612;50.894;10.700;2022-12-11T02:53:15;49.47;;;21.80;;
20527;SDS011;23612;50.894;10.700;2022-12-11T02:55:42;46.57;;;21.53;;
20527;SDS011;23612;50.894;10.700;2022-12-11T02:58:13;38.73;;;18.30;;
20527;SDS011;23612;50.894;10.700;2022-12-11T03:00:49;41.20;;;19.13;;
20527;SDS011;23612;50.894;10.700;2022-12-11T03:03:15;38.87;;;17.27;;
20527;SDS011;23612;50.894;10.700;2022-12-11T03:05:41;36.90;;;17.70;;
20527;SDS011;23612;50.894;10.700;2022-12-11T03:08:07;41.77;;;18.53;;
20527;SDS011;23612;50.894;10.700;2022-12-11T03:10:33;39.83;;;18.97;;
20527;SDS011;23612;50.894;10.700;2022-12-11T03:12:58;44.10;;;19.73;;
20527;SDS011;23612;50.894;10.700;2022-12-11T03:15:31;43.83;;;19.97;;
20527;SDS011;23612;50.894;10.700;2022-12-11T03:18:12;36.97;;;18.43;;
20527;SDS011;23612;50.894;10.700;2022-12-11T03:20:53;39.20;;;17.93;;
20527;SDS011;23612;50.894;10.700;2022-12-11T03:26:09;40.93;;;19.87;;
20527;SDS011;23612;50.894;10.700;2022-12-11T03:28:44;49.63;;;22.03;;
20527;SDS011;23612;50.894;10.700;2022-12-11T03:31:22;53.50;;;23.30;;
20527;SDS011;23612;50.894;10.700;2022-12-11T03:34:07;52.70;;;23.40;;
20527;SDS011;23612;50.894;10.700;2022-12-11T03:37:01;54.40;;;23.40;;
20527;SDS011;23612;50.894;10.700;2022-12-11T03:39:33;44.97;;;21.53;;
20527;SDS011;23612;50.894;10.700;2022-12-11T03:42:02;51.37;;;23.00;;
20527;SDS011;23612;50.894;10.700;2022-12-11T03:44:32;49.37;;;22.23;;
20527;SDS011;23612;50.894;10.700;2022-12-11T03:46:59;49.87;;;23.10;;
20527;SDS011;23612;50.894;10.700;2022-12-11T03:49:28;46.10;;;22.20;;
20527;SDS011;23612;50.894;10.700;2022-12-11T03:51:58;48.70;;;21.53;;
20527;SDS011;23612;50.894;10.700;2022-12-11T03:54:25;48.20;;;20.73;;
20527;SDS011;23612;50.894;10.700;2022-12-11T03:56:53;49.80;;;22.17;;
20527;SDS011;23612;50.894;10.700;2022-12-11T03:59:22;45.73;;;21.90;;
20527;SDS011;23612;50.894;10.700;2022-12-11T04:01:47;50.47;;;21.13;;
20527;SDS011;23612;50.894;10.700;2022-12-11T04:04:14;49.50;;;22.47;;
20527;SDS011;23612;50.894;10.700;2022-12-11T04:06:39;47.57;;;20.77;;
20527;SDS011;23612;50.894;10.700;2022-12-11T04:09:05;44.07;;;20.73;;
20527;SDS011;23612;50.894;10.700;2022-12-11T04:11:31;45.97;;;21.20;;
20527;SDS011;23612;50.894;10.700;2022-12-11T04:14:03;44.30;;;21.63;;
20527;SDS011;23612;50.894;10.700;2022-12-11T04:16:49;44.80;;;21.30;;
20527;SDS011;23612;50.894;10.700;2022-12-11T04:19:15;46.93;;;22.03;;
20527;SDS011;23612;50.894;10.700;2022-12-11T04:21:59;45.10;;;21.07;;
20527;SDS011;23612;50.894;10.700;2022-12-11T04:24:45;47.83;;;21.10;;
20527;SDS011;23612;50.894;10.700;2022-12-11T04:27:12;45.43;;;21.60;;
20527;SDS011;23612;50.894;10.700;2022-12-11T04:29:38;45.87;;;21.87;;
20527;SDS011;23612;50.894;10.700;2022-12-11T04:32:04;45.27;;;21.47;;
20527;SDS011;23612;50.894;10.700;2022-12-11T04:34:29;44.43;;;21.57;;
20527;SDS011;23612;50.894;10.700;2022-12-11T04:36:55;45.60;;;22.10;;
20527;SDS011;23612;50.894;10.700;2022-12-11T04:39:20;50.87;;;22.63;;
20527;SDS011;23612;50.894;10.700;2022-12-11T04:41:46;48.50;;;22.40;;
20527;SDS011;23612;50.894;10.700;2022-12-11T04:44:11;47.73;;;23.20;;
20527;SDS011;23612;50.894;10.700;2022-12-11T04:46:37;51.60;;;24.57;;
20527;SDS011;23612;50.894;10.700;2022-12-11T04:49:02;50.37;;;24.07;;
20527;SDS011;23612;50.894;10.700;2022-12-11T04:51:28;54.07;;;26.97;;
20527;SDS011;23612;50.894;10.700;2022-12-11T04:53:54;51.57;;;25.80;;
20527;SDS011;23612;50.894;10.700;2022-12-11T04:56:20;56.53;;;26.80;;
20527;SDS011;23612;50.894;10.700;2022-12-11T04:58:46;45.27;;;21.40;;
20527;SDS011;23612;50.894;10.700;2022-12-11T05:01:16;47.43;;;23.43;;
20527;SDS011;23612;50.894;10.700;2022-12-11T05:03:43;49.83;;;23.40;;
20527;SDS011;23612;50.894;10.700;2022-12-11T05:06:09;49.90;;;23.03;;
20527;SDS011;23612;50.894;10.700;2022-12-11T05:08:36;49.83;;;22.57;;
20527;SDS011;23612;50.894;10.700;2022-12-11T05:11:05;45.93;;;22.67;;
20527;SDS011;23612;50.894;10.700;2022-12-11T05:13:34;51.13;;;23.87;;
20527;SDS011;23612;50.894;10.700;2022-12-11T05:16:02;47.43;;;22.10;;
20527;SDS011;23612;50.894;10.700;2022-12-11T05:18:29;45.30;;;21.57;;
20527;SDS011;23612;50.894;10.700;2022-12-11T05:20:55;45.60;;;21.50;;
20527;SDS011;23612;50.894;10.700;2022-12-11T05:23:24;47.63;;;21.00;;
20527;SDS011;23612;50.894;10.700;2022-12-11T05:25:54;44.60;;;20.20;;
20527;SDS011;23612;50.894;10.700;2022-12-11T05:28:21;43.47;;;20.57;;
20527;SDS011;23612;50.894;10.700;2022-12-11T05:30:53;46.13;;;22.07;;
20527;SDS011;23612;50.894;10.700;2022-12-11T05:33:23;41.23;;;20.13;;
20527;SDS011;23612;50.894;10.700;2022-12-11T05:35:49;45.50;;;21.80;;
20527;SDS011;23612;50.894;10.700;2022-12-11T05:38:15;46.70;;;22.67;;
20527;SDS011;23612;50.894;10.700;2022-12-11T05:40:40;48.40;;;21.93;;
20527;SDS011;23612;50.894;10.700;2022-12-11T05:43:06;49.90;;;23.37;;
20527;SDS011;23612;50.894;10.700;2022-12-11T05:45:32;45.47;;;21.00;;
20527;SDS011;23612;50.894;10.700;2022-12-11T05:47:58;47.87;;;21.27;;
20527;SDS011;23612;50.894;10.700;2022-12-11T05:50:24;47.33;;;22.67;;
20527;SDS011;23612;50.894;10.700;2022-12-11T05:52:49;48.93;;;22.00;;
20527;SDS011;23612;50.894;10.700;2022-12-11T05:55:15;45.97;;;20.63;;
20527;SDS011;23612;50.894;10.700;2022-12-11T05:57:41;52.20;;;22.53;;
20527;SDS011;23612;50.894;10.700;2022-12-11T06:00:07;52.40;;;24.47;;
20527;SDS011;23612;50.894;10.700;2022-12-11T06:02:33;50.67;;;23.77;;
20527;SDS011;23612;50.894;10.700;2022-12-11T06:04:59;55.83;;;26.47;;
20527;SDS011;23612;50.894;10.700;2022-12-11T06:07:25;85.60;;;42.10;;
20527;SDS011;23612;50.894;10.700;2022-12-11T06:09:50;56.50;;;25.83;;
20527;SDS011;23612;50.894;10.700;2022-12-11T06:12:16;39.13;;;18.80;;
20527;SDS011;23612;50.894;10.700;2022-12-11T06:14:41;38.83;;;18.60;;
20527;SDS011;23612;50.894;10.700;2022-12-11T06:17:07;39.60;;;18.20;;
20527;SDS011;23612;50.894;10.700;2022-12-11T06:19:32;42.33;;;19.97;;
20527;SDS011;23612;50.894;10.700;2022-12-11T06:21:58;47.63;;;21.77;;
20527;SDS011;23612;50.894;10.700;2022-12-11T06:24:23;48.67;;;22.20;;
20527;SDS011;23612;50.894;10.700;2022-12-11T06:26:49;57.87;;;25.83;;
20527;SDS011;23612;50.894;10.700;2022-12-11T06:29:14;45.60;;;21.70;;
20527;SDS011;23612;50.894;10.700;2022-12-11T06:31:40;51.30;;;23.63;;
20527;SDS011;23612;50.894;10.700;2022-12-11T06:34:05;47.63;;;22.27;;
20527;SDS011;23612;50.894;10.700;2022-12-11T06:36:31;41.33;;;20.03;;
20527;SDS011;23612;50.894;10.700;2022-12-11T06:38:56;44.40;;;19.70;;
20527;SDS011;23612;50.894;10.700;2022-12-11T06:41:22;76.17;;;34.23;;
20527;SDS011;23612;50.894;10.700;2022-12-11T06:43:47;46.77;;;21.63;;
20527;SDS011;23612;50.894;10.700;2022-12-11T06:46:15;42.43;;;20.83;;
20527;SDS011;23612;50.894;10.700;2022-12-11T06:48:42;38.47;;;18.60;;
20527;SDS011;23612;50.894;10.700;2022-12-11T06:51:09;41.73;;;21.27;;
20527;SDS011;23612;50.894;10.700;2022-12-11T06:53:37;41.83;;;19.97;;
20527;SDS011;23612;50.894;10.700;2022-12-11T06:56:07;40.27;;;19.47;;
20527;SDS011;23612;50.894;10.700;2022-12-11T06:58:34;39.77;;;17.73;;
20527;SDS011;23612;50.894;10.700;2022-12-11T07:01:01;39.77;;;18.27;;
20527;SDS011;23612;50.894;10.700;2022-12-11T07:03:27;38.37;;;18.53;;
20527;SDS011;23612;50.894;10.700;2022-12-11T07:05:53;38.30;;;18.50;;
20527;SDS011;23612;50.894;10.700;2022-12-11T07:08:18;40.77;;;17.07;;
20527;SDS011;23612;50.894;10.700;2022-12-11T07:10:44;35.37;;;16.83;;
20527;SDS011;23612;50.894;10.700;2022-12-11T07:13:09;31.97;;;14.97;;
20527;SDS011;23612;50.894;10.700;2022-12-11T07:15:35;29.50;;;13.40;;
20527;SDS011;23612;50.894;10.700;2022-12-11T07:18:01;25.53;;;13.20;;
20527;SDS011;23612;50.894;10.700;2022-12-11T07:20:26;24.93;;;13.00;;
20527;SDS011;23612;50.894;10.700;2022-12-11T07:22:52;24.27;;;12.57;;
20527;SDS011;23612;50.894;10.700;2022-12-11T07:25:18;32.63;;;14.63;;
20527;SDS011;23612;50.894;10.700;2022-12-11T07:27:44;33.90;;;14.50;;
20527;SDS011;23612;50.894;10.700;2022-12-11T07:30:10;30.43;;;13.33;;
20527;SDS011;23612;50.894;10.700;2022-12-11T07:32:36;30.53;;;14.00;;
20527;SDS011;23612;50.894;10.700;2022-12-11T07:35:02;27.43;;;13.53;;
20527;SDS011;23612;50.894;10.700;2022-12-11T07:37:27;27.20;;;14.53;;
20527;SDS011;23612;50.894;10.700;2022-12-11T07:39:53;20.97;;;11.97;;
20527;SDS011;23612;50.894;10.700;2022-12-11T07:42:19;24.20;;;12.17;;
20527;SDS011;23612;50.894;10.700;2022-12-11T07:44:44;22.67;;;12.43;;
20527;SDS011;23612;50.894;10.700;2022-12-11T07:47:10;26.57;;;13.60;;
20527;SDS011;23612;50.894;10.700;2022-12-11T07:49:35;34.23;;;15.93;;
20527;SDS011;23612;50.894;10.700;2022-12-11T07:52:01;34.63;;;16.83;;
20527;SDS011;23612;50.894;10.700;2022-12-11T07:54:26;28.03;;;13.50;;
20527;SDS011;23612;50.894;10.700;2022-12-11T07:56:52;23.23;;;13.23;;
20527;SDS011;23612;50.894;10.700;2022-12-11T07:59:17;23.90;;;12.33;;
20527;SDS011;23612;50.894;10.700;2022-12-11T08:01:43;21.10;;;11.77;;
20527;SDS011;23612;50.894;10.700;2022-12-11T08:04:09;21.27;;;11.40;;
20527;SDS011;23612;50.894;10.700;2022-12-11T08:06:36;22.17;;;11.20;;
20527;SDS011;23612;50.894;10.700;2022-12-11T08:09:08;22.27;;;13.10;;
20527;SDS011;23612;50.894;10.700;2022-12-11T08:11:35;51.73;;;26.97;;
20527;SDS011;23612;50.894;10.700;2022-12-11T08:14:01;26.60;;;14.83;;
20527;SDS011;23612;50.894;10.700;2022-12-11T08:16:27;32.80;;;19.67;;
20527;SDS011;23612;50.894;10.700;2022-12-11T08:18:53;26.80;;;13.80;;
20527;SDS011;23612;50.894;10.700;2022-12-11T08:21:20;24.40;;;12.47;;
20527;SDS011;23612;50.894;10.700;2022-12-11T08:23:47;32.70;;;18.23;;
20527;SDS011;23612;50.894;10.700;2022-12-11T08:26:17;38.70;;;21.07;;
20527;SDS011;23612;50.894;10.700;2022-12-11T08:28:44;39.37;;;22.30;;
20527;SDS011;23612;50.894;10.700;2022-12-11T08:31:10;90.17;;;38.47;;
20527;SDS011;23612;50.894;10.700;2022-12-11T08:33:38;85.30;;;35.50;;
20527;SDS011;23612;50.894;10.700;2022-12-11T08:36:04;41.80;;;20.30;;
20527;SDS011;23612;50.894;10.700;2022-12-11T08:38:31;37.07;;;18.07;;
20527;SDS011;23612;50.894;10.700;2022-12-11T08:40:57;34.83;;;18.67;;
20527;SDS011;23612;50.894;10.700;2022-12-11T08:43:23;39.80;;;18.53;;
20527;SDS011;23612;50.894;10.700;2022-12-11T08:45:49;48.20;;;24.00;;
20527;SDS011;23612;50.894;10.700;2022-12-11T08:48:14;40.37;;;23.33;;
20527;SDS011;23612;50.894;10.700;2022-12-11T08:50:41;31.13;;;17.27;;
20527;SDS011;23612;50.894;10.700;2022-12-11T08:53:07;29.47;;;14.60;;
20527;SDS011;23612;50.894;10.700;2022-12-11T08:55:32;21.90;;;12.17;;
20527;SDS011;23612;50.894;10.700;2022-12-11T08:57:58;20.53;;;11.70;;
20527;SDS011;23612;50.894;10.700;2022-12-11T09:00:24;21.97;;;11.63;;
20527;SDS011;23612;50.894;10.700;2022-12-11T09:02:49;23.53;;;13.23;;
20527;SDS011;23612;50.894;10.700;2022-12-11T09:05:15;20.90;;;13.40;;
20527;SDS011;23612;50.894;10.700;2022-12-11T09:07:41;29.20;;;16.20;;
20527;SDS011;23612;50.894;10.700;2022-12-11T09:10:07;55.27;;;29.33;;
20527;SDS011;23612;50.894;10.700;2022-12-11T09:12:34;28.43;;;17.00;;
20527;SDS011;23612;50.894;10.700;2022-12-11T09:15:00;33.07;;;20.83;;
20527;SDS011;23612;50.894;10.700;2022-12-11T09:17:25;39.43;;;22.63;;
20527;SDS011;23612;50.894;10.700;2022-12-11T09:19:51;63.07;;;38.03;;
20527;SDS011;23612;50.894;10.700;2022-12-11T09:22:16;19.13;;;11.13;;
20527;SDS011;23612;50.894;10.700;2022-12-11T09:24:42;22.43;;;13.57;;
20527;SDS011;23612;50.894;10.700;2022-12-11T09:27:07;18.73;;;11.07;;
20527;SDS011;23612;50.894;10.700;2022-12-11T09:29:33;20.07;;;9.60;;
20527;SDS011;23612;50.894;10.700;2022-12-11T09:31:59;15.27;;;8.43;;
20527;SDS011;23612;50.894;10.700;2022-12-11T09:34:24;16.43;;;7.97;;
20527;SDS011;23612;50.894;10.700;2022-12-11T09:36:50;19.10;;;10.17;;
20527;SDS011;23612;50.894;10.700;2022-12-11T09:39:15;30.20;;;14.00;;
20527;SDS011;23612;50.894;10.700;2022-12-11T09:41:50;71.07;;;26.70;;
20527;SDS011;23612;50.894;10.700;2022-12-11T09:47:50;33.60;;;16.17;;
20527;SDS011;23612;50.894;10.700;2022-12-11T09:52:36;39.07;;;16.87;;
20527;SDS011;23612;50.894;10.700;2022-12-11T09:55:13;22.10;;;8.87;;
20527;SDS011;23612;50.894;10.700;2022-12-11T09:57:49;14.87;;;8.27;;
20527;SDS011;23612;50.894;10.700;2022-12-11T10:06:06;18.70;;;11.73;;
20527;SDS011;23612;50.894;10.700;2022-12-11T10:08:49;19.13;;;8.73;;
20527;SDS011;23612;50.894;10.700;2022-12-11T10:14:39;23.77;;;10.57;;
20527;SDS011;23612;50.894;10.700;2022-12-11T10:17:29;15.70;;;8.47;;
20527;SDS011;23612;50.894;10.700;2022-12-11T10:20:02;16.37;;;9.23;;
20527;SDS011;23612;50.894;10.700;2022-12-11T10:22:42;19.63;;;10.90;;
20527;SDS011;23612;50.894;10.700;2022-12-11T10:25:14;16.50;;;9.10;;
20527;SDS011;23612;50.894;10.700;2022-12-11T10:27:44;15.60;;;8.40;;
20527;SDS011;23612;50.894;10.700;2022-12-11T10:30:20;15.93;;;7.97;;
20527;SDS011;23612;50.894;10.700;2022-12-11T10:35:36;13.57;;;8.17;;
20527;SDS011;23612;50.894;10.700;2022-12-11T10:38:10;17.77;;;9.37;;
20527;SDS011;23612;50.894;10.700;2022-12-11T10:41:00;18.53;;;8.10;;
20527;SDS011;23612;50.894;10.700;2022-12-11T10:43:31;14.73;;;7.57;;
20527;SDS011;23612;50.894;10.700;2022-12-11T10:45:57;15.73;;;7.43;;
20527;SDS011;23612;50.894;10.700;2022-12-11T10:48:22;15.67;;;8.83;;
20527;SDS011;23612;50.894;10.700;2022-12-11T10:50:55;13.43;;;8.10;;
20527;SDS011;23612;50.894;10.700;2022-12-11T10:53:26;15.27;;;8.00;;
20527;SDS011;23612;50.894;10.700;2022-12-11T10:55:53;15.30;;;8.63;;
20527;SDS011;23612;50.894;10.700;2022-12-11T10:58:22;22.90;;;11.87;;
20527;SDS011;23612;50.894;10.700;2022-12-11T11:03:33;13.10;;;7.50;;
20527;SDS011;23612;50.894;10.700;2022-12-11T11:06:14;13.63;;;7.57;;
20527;SDS011;23612;50.894;10.700;2022-12-11T11:08:42;16.50;;;8.10;;
20527;SDS011;23612;50.894;10.700;2022-12-11T11:13:50;16.60;;;9.33;;
20527;SDS011;23612;50.894;10.700;2022-12-11T11:16:18;15.77;;;8.90;;
20527;SDS011;23612;50.894;10.700;2022-12-11T11:18:53;19.03;;;9.97;;
20527;SDS011;23612;50.894;10.700;2022-12-11T11:21:21;32.60;;;12.60;;
20527;SDS011;23612;50.894;10.700;2022-12-11T11:23:50;21.90;;;9.50;;
20527;SDS011;23612;50.894;10.700;2022-12-11T11:26:16;16.30;;;8.50;;
20527;SDS011;23612;50.894;10.700;2022-12-11T11:28:47;21.07;;;10.33;;
20527;SDS011;23612;50.894;10.700;2022-12-11T11:31:17;18.20;;;9.70;;
20527;SDS011;23612;50.894;10.700;2022-12-11T11:33:54;17.27;;;9.87;;
20527;SDS011;23612;50.894;10.700;2022-12-11T11:36:29;23.30;;;11.30;;
20527;SDS011;23612;50.894;10.700;2022-12-11T11:44:18;30.53;;;18.23;;
20527;SDS011;23612;50.894;10.700;2022-12-11T11:47:01;24.03;;;11.93;;
20527;SDS011;23612;50.894;10.700;2022-12-11T11:50:00;21.33;;;12.00;;
20527;SDS011;23612;50.894;10.700;2022-12-11T11:52:32;24.57;;;12.77;;
20527;SDS011;23612;50.894;10.700;2022-12-11T11:55:23;21.37;;;12.27;;
20527;SDS011;23612;50.894;10.700;2022-12-11T11:58:04;22.70;;;12.80;;
20527;SDS011;23612;50.894;10.700;2022-12-11T12:00:37;25.53;;;12.70;;
20527;SDS011;23612;50.894;10.700;2022-12-11T12:03:07;22.87;;;12.23;;
20527;SDS011;23612;50.894;10.700;2022-12-11T12:05:45;24.27;;;13.13;;
20527;SDS011;23612;50.894;10.700;2022-12-11T12:11:19;22.90;;;11.47;;
20527;SDS011;23612;50.894;10.700;2022-12-11T12:14:07;18.73;;;9.80;;
20527;SDS011;23612;50.894;10.700;2022-12-11T12:21:54;24.03;;;12.60;;
20527;SDS011;23612;50.894;10.700;2022-12-11T12:32:52;18.07;;;9.70;;
20527;SDS011;23612;50.894;10.700;2022-12-11T12:35:35;17.60;;;8.80;;
20527;SDS011;23612;50.894;10.700;2022-12-11T12:40:31;15.73;;;8.10;;
20527;SDS011;23612;50.894;10.700;2022-12-11T12:43:26;16.33;;;8.57;;
20527;SDS011;23612;50.894;10.700;2022-12-11T12:48:48;14.03;;;7.50;;
20527;SDS011;23612;50.894;10.700;2022-12-11T12:51:15;15.40;;;8.30;;
20527;SDS011;23612;50.894;10.700;2022-12-11T12:53:48;16.30;;;7.80;;
20527;SDS011;23612;50.894;10.700;2022-12-11T12:56:19;37.30;;;22.10;;
20527;SDS011;23612;50.894;10.700;2022-12-11T12:58:46;22.73;;;12.63;;
20527;SDS011;23612;50.894;10.700;2022-12-11T13:06:28;14.10;;;7.80;;
20527;SDS011;23612;50.894;10.700;2022-12-11T13:09:08;15.17;;;7.30;;
20527;SDS011;23612;50.894;10.700;2022-12-11T13:11:41;15.80;;;8.00;;
20527;SDS011;23612;50.894;10.700;2022-12-11T13:16:38;14.27;;;7.50;;
20527;SDS011;23612;50.894;10.700;2022-12-11T13:26:46;58.03;;;26.27;;
20527;SDS011;23612;50.894;10.700;2022-12-11T13:29:31;18.83;;;9.37;;
20527;SDS011;23612;50.894;10.700;2022-12-11T13:34:34;26.83;;;15.53;;
20527;SDS011;23612;50.894;10.700;2022-12-11T13:37:02;70.00;;;37.90;;
20527;SDS011;23612;50.894;10.700;2022-12-11T13:39:29;28.20;;;16.17;;
20527;SDS011;23612;50.894;10.700;2022-12-11T13:42:02;18.90;;;9.73;;
20527;SDS011;23612;50.894;10.700;2022-12-11T13:44:33;17.33;;;9.50;;
20527;SDS011;23612;50.894;10.700;2022-12-11T13:47:03;65.60;;;35.17;;
20527;SDS011;23612;50.894;10.700;2022-12-11T13:49:37;19.57;;;10.57;;
20527;SDS011;23612;50.894;10.700;2022-12-11T13:52:13;22.27;;;10.10;;
20527;SDS011;23612;50.894;10.700;2022-12-11T13:54:46;83.07;;;49.33;;
20527;SDS011;23612;50.894;10.700;2022-12-11T13:57:22;37.90;;;22.20;;
20527;SDS011;23612;50.894;10.700;2022-12-11T13:59:53;18.57;;;10.27;;
20527;SDS011;23612;50.894;10.700;2022-12-11T14:02:34;17.67;;;10.53;;
20527;SDS011;23612;50.894;10.700;2022-12-11T14:05:06;22.13;;;12.20;;
20527;SDS011;23612;50.894;10.700;2022-12-11T14:07:37;19.60;;;10.00;;
20527;SDS011;23612;50.894;10.700;2022-12-11T14:10:17;20.17;;;10.40;;
20527;SDS011;23612;50.894;10.700;2022-12-11T14:12:50;18.20;;;10.57;;
20527;SDS011;23612;50.894;10.700;2022-12-11T14:15:21;23.33;;;11.10;;
20527;SDS011;23612;50.894;10.700;2022-12-11T14:17:47;19.10;;;10.57;;
20527;SDS011;23612;50.894;10.700;2022-12-11T14:20:24;25.97;;;11.73;;
20527;SDS011;23612;50.894;10.700;2022-12-11T14:23:02;23.93;;;10.87;;
20527;SDS011;23612;50.894;10.700;2022-12-11T14:25:32;25.80;;;11.27;;
20527;SDS011;23612;50.894;10.700;2022-12-11T14:27:58;20.47;;;11.43;;
20527;SDS011;23612;50.894;10.700;2022-12-11T14:30:27;19.83;;;11.17;;
20527;SDS011;23612;50.894;10.700;2022-12-11T14:32:59;24.37;;;11.97;;
20527;SDS011;23612;50.894;10.700;2022-12-11T14:35:27;22.53;;;10.70;;
20527;SDS011;23612;50.894;10.700;2022-12-11T14:37:57;19.73;;;10.57;;
20527;SDS011;23612;50.894;10.700;2022-12-11T14:40:27;24.23;;;12.33;;
20527;SDS011;23612;50.894;10.700;2022-12-11T14:43:00;21.23;;;11.40;;
20527;SDS011;23612;50.894;10.700;2022-12-11T14:45:33;27.23;;;13.47;;
20527;SDS011;23612;50.894;10.700;2022-12-11T14:48:02;24.87;;;12.03;;
20527;SDS011;23612;50.894;10.700;2022-12-11T14:50:37;21.73;;;11.43;;
20527;SDS011;23612;50.894;10.700;2022-12-11T14:53:19;21.90;;;11.70;;
20527;SDS011;23612;50.894;10.700;2022-12-11T14:55:48;28.57;;;16.27;;
20527;SDS011;23612;50.894;10.700;2022-12-11T14:58:18;24.27;;;13.60;;
20527;SDS011;23612;50.894;10.700;2022-12-11T15:00:56;24.60;;;12.30;;
20527;SDS011;23612;50.894;10.700;2022-12-11T15:03:28;28.43;;;13.27;;
20527;SDS011;23612;50.894;10.700;2022-12-11T15:05:56;22.93;;;12.07;;
20527;SDS011;23612;50.894;10.700;2022-12-11T15:13:36;31.83;;;15.23;;
20527;SDS011;23612;50.894;10.700;2022-12-11T15:16:15;26.20;;;11.70;;
20527;SDS011;23612;50.894;10.700;2022-12-11T15:18:41;24.83;;;12.33;;
20527;SDS011;23612;50.894;10.700;2022-12-11T15:21:08;50.33;;;26.50;;
20527;SDS011;23612;50.894;10.700;2022-12-11T15:23:46;49.20;;;25.47;;
20527;SDS011;23612;50.894;10.700;2022-12-11T15:26:19;39.60;;;19.93;;
20527;SDS011;23612;50.894;10.700;2022-12-11T15:28:59;40.00;;;18.50;;
20527;SDS011;23612;50.894;10.700;2022-12-11T15:31:27;47.70;;;23.93;;
20527;SDS011;23612;50.894;10.700;2022-12-11T15:33:55;27.13;;;15.03;;
20527;SDS011;23612;50.894;10.700;2022-12-11T15:36:31;27.87;;;14.53;;
20527;SDS011;23612;50.894;10.700;2022-12-11T15:39:01;31.80;;;16.93;;
20527;SDS011;23612;50.894;10.700;2022-12-11T15:41:27;31.47;;;17.00;;
20527;SDS011;23612;50.894;10.700;2022-12-11T15:43:57;25.53;;;13.07;;
20527;SDS011;23612;50.894;10.700;2022-12-11T15:46:25;25.63;;;13.37;;
20527;SDS011;23612;50.894;10.700;2022-12-11T15:48:51;28.13;;;13.73;;
20527;SDS011;23612;50.894;10.700;2022-12-11T15:51:16;28.83;;;14.90;;